createdAt,value
2018-08-11T00:02:16.555Z,98726.39
2018-08-11T00:04:49.254Z,98723.05
2018-08-11T00:07:20.445Z,98725.60
2018-08-11T00:09:50.992Z,98726.61
2018-08-11T00:12:22.165Z,98722.25
2018-08-11T00:14:52.588Z,98714.55
2018-08-11T00:17:23.165Z,98716.91
2018-08-11T00:19:53.299Z,98712.00
2018-08-11T00:22:23.353Z,98709.84
2018-08-11T00:24:53.538Z,98719.86
2018-08-11T00:27:27.421Z,98716.77
2018-08-11T00:29:57.781Z,98718.73
2018-08-11T00:32:27.919Z,98718.39
2018-08-11T00:34:58.986Z,98713.16
2018-08-11T00:37:29.744Z,98708.25
2018-08-11T00:40:00.054Z,98710.69
2018-08-11T00:42:32.529Z,98709.22
2018-08-11T00:45:03.086Z,98709.80
2018-08-11T00:47:34.022Z,98714.13
2018-08-11T00:50:06.594Z,98707.90
2018-08-11T00:52:39.130Z,98700.23
2018-08-11T00:55:12.480Z,98697.80
2018-08-11T00:57:43.595Z,98695.16
2018-08-11T01:00:19.209Z,98696.95
2018-08-11T01:02:50.435Z,98694.81
2018-08-11T01:05:21.660Z,98700.68
2018-08-11T01:07:52.165Z,98700.07
2018-08-11T01:10:22.695Z,98697.85
2018-08-11T01:12:54.357Z,98701.02
2018-08-11T01:15:24.619Z,98698.08
2018-08-11T01:17:55.745Z,98697.58
2018-08-11T01:20:26.539Z,98701.11
2018-08-11T01:22:56.729Z,98702.64
2018-08-11T01:25:27.907Z,98702.75
2018-08-11T01:27:58.811Z,98697.80
2018-08-11T01:30:29.016Z,98693.93
2018-08-11T01:32:59.369Z,98694.75
2018-08-11T01:35:32.905Z,98701.97
2018-08-11T01:38:03.136Z,98699.36
2018-08-11T01:40:33.650Z,98699.61
2018-08-11T01:43:04.398Z,98695.08
2018-08-11T01:45:35.427Z,98689.48
2018-08-11T01:48:05.681Z,98693.44
2018-08-11T01:50:36.733Z,98685.77
2018-08-11T01:53:09.359Z,98690.64
2018-08-11T01:55:41.098Z,98688.77
2018-08-11T01:58:11.193Z,98687.64
2018-08-11T02:00:41.707Z,98682.34
2018-08-11T02:03:12.380Z,98682.48
2018-08-11T02:05:45.027Z,98680.59
2018-08-11T02:08:15.638Z,98675.53
2018-08-11T02:10:46.075Z,98679.02
2018-08-11T02:13:18.401Z,98675.89
2018-08-11T02:15:49.873Z,98673.03
2018-08-11T02:18:21.044Z,98673.83
2018-08-11T02:20:54.208Z,98670.73
2018-08-11T02:23:25.093Z,98663.66
2018-08-11T02:25:56.543Z,98666.27
2018-08-11T02:28:28.679Z,98659.34
2018-08-11T02:30:59.816Z,98659.23
2018-08-11T02:33:30.593Z,98656.25
2018-08-11T02:36:02.070Z,98661.81
2018-08-11T02:38:32.947Z,98660.45
2018-08-11T02:41:03.579Z,98665.64
2018-08-11T02:43:34.423Z,98655.97
2018-08-11T02:46:04.778Z,98665.48
2018-08-11T02:48:35.413Z,98661.62
2018-08-11T02:51:06.711Z,98664.59
2018-08-11T02:53:36.800Z,98658.89
2018-08-11T02:56:07.430Z,98664.53
2018-08-11T02:58:38.170Z,98661.19
2018-08-11T03:01:08.310Z,98667.23
2018-08-11T03:03:38.812Z,98663.55
2018-08-11T03:06:08.903Z,98670.88
2018-08-11T03:08:38.980Z,98678.88
2018-08-11T03:11:09.462Z,98667.27
2018-08-11T03:13:40.888Z,98679.03
2018-08-11T03:16:13.262Z,98673.41
2018-08-11T03:18:44.921Z,98674.89
2018-08-11T03:21:15.074Z,98672.41
2018-08-11T03:23:45.978Z,98672.27
2018-08-11T03:26:16.428Z,98677.59
2018-08-11T03:28:47.153Z,98674.25
2018-08-11T03:31:18.298Z,98676.94
2018-08-11T03:33:48.962Z,98673.91
2018-08-11T03:36:20.335Z,98679.41
2018-08-11T03:38:50.394Z,98676.06
2018-08-11T03:41:20.497Z,98678.94
2018-08-11T03:43:51.167Z,98680.25
2018-08-11T03:46:21.196Z,98671.45
2018-08-11T03:48:51.251Z,98670.21
2018-08-11T03:51:21.947Z,98672.75
2018-08-11T03:53:53.984Z,98669.48
2018-08-11T03:56:24.084Z,98668.41
2018-08-11T03:58:54.313Z,98670.18
2018-08-11T04:01:25.904Z,98666.47
2018-08-11T04:03:55.897Z,98673.08
2018-08-11T04:06:26.139Z,98676.05
2018-08-11T04:08:56.230Z,98675.56
2018-08-11T04:11:27.723Z,98673.88
2018-08-11T04:13:59.467Z,98668.54
2018-08-11T04:16:30.753Z,98677.40
2018-08-11T04:19:01.492Z,98679.32
2018-08-11T04:21:31.576Z,98687.33
2018-08-11T04:24:02.181Z,98688.34
2018-08-11T04:26:33.860Z,98688.23
2018-08-11T04:29:05.251Z,98688.53
2018-08-11T04:31:36.077Z,98686.91
2018-08-11T04:34:08.997Z,98690.13
2018-08-11T04:36:41.171Z,98692.94
2018-08-11T04:39:12.929Z,98692.20
2018-08-11T04:41:45.570Z,98691.20
2018-08-11T04:44:17.127Z,98690.42
2018-08-11T04:46:49.523Z,98693.33
2018-08-11T04:49:20.791Z,98690.40
2018-08-11T04:51:52.106Z,98691.06
2018-08-11T04:54:23.407Z,98695.16
2018-08-11T04:56:55.093Z,98694.97
2018-08-11T04:59:25.825Z,98699.59
2018-08-11T05:01:57.101Z,98707.70
2018-08-11T05:04:27.509Z,98712.60
2018-08-11T05:06:57.863Z,98712.79
2018-08-11T05:09:28.332Z,98717.02
2018-08-11T05:11:59.225Z,98714.88
2018-08-11T05:14:29.333Z,98719.34
2018-08-11T05:16:59.883Z,98721.02
2018-08-11T05:19:31.322Z,98722.33
2018-08-11T05:22:02.383Z,98726.48
2018-08-11T05:24:33.577Z,98725.06
2018-08-11T05:27:05.123Z,98725.81
2018-08-11T05:29:35.870Z,98724.59
2018-08-11T05:32:05.975Z,98724.27
2018-08-11T05:34:36.097Z,98726.18
2018-08-11T05:37:06.801Z,98735.11
2018-08-11T05:39:37.147Z,98734.97
2018-08-11T05:42:07.263Z,98745.22
2018-08-11T05:44:37.581Z,98741.57
2018-08-11T05:47:07.788Z,98738.98
2018-08-11T05:49:37.875Z,98742.08
2018-08-11T05:52:08.040Z,98746.62
2018-08-11T05:54:38.265Z,98747.58
2018-08-11T05:57:08.587Z,98748.95
2018-08-11T05:59:38.639Z,98748.06
2018-08-11T06:02:10.095Z,98745.88
2018-08-11T06:04:40.901Z,98747.68
2018-08-11T06:07:12.522Z,98755.45
2018-08-11T06:09:42.722Z,98747.92
2018-08-11T06:12:13.125Z,98761.64
2018-08-11T06:14:44.039Z,98752.14
2018-08-11T06:17:16.587Z,98755.82
2018-08-11T06:19:46.711Z,98748.64
2018-08-11T06:22:22.667Z,98756.23
2018-08-11T06:24:53.285Z,98759.95
2018-08-11T06:27:23.607Z,98766.02
2018-08-11T06:29:54.341Z,98756.89
2018-08-11T06:32:27.009Z,98759.40
2018-08-11T06:34:58.683Z,98758.83
2018-08-11T06:37:31.543Z,98761.97
2018-08-11T06:40:06.387Z,98767.78
2018-08-11T06:42:38.083Z,98754.24
2018-08-11T06:45:09.460Z,98750.89
2018-08-11T06:47:40.794Z,98756.23
2018-08-11T06:50:12.185Z,98759.50
2018-08-11T06:52:44.011Z,98758.55
2018-08-11T06:55:15.126Z,98752.73
2018-08-11T06:57:46.769Z,98757.05
2018-08-11T07:00:17.406Z,98750.46
2018-08-11T07:02:48.075Z,98754.03
2018-08-11T07:05:19.751Z,98758.06
2018-08-11T07:07:50.015Z,98757.13
2018-08-11T07:10:21.478Z,98751.10
2018-08-11T07:12:51.672Z,98770.27
2018-08-11T07:15:22.359Z,98765.66
2018-08-11T07:17:56.485Z,98771.75
2018-08-11T07:20:27.612Z,98755.25
2018-08-11T07:22:57.862Z,98734.01
2018-08-11T07:25:31.955Z,98739.04
2018-08-11T07:28:02.207Z,98738.39
2018-08-11T07:30:34.873Z,98753.59
2018-08-11T07:33:07.297Z,98749.45
2018-08-11T07:35:38.046Z,98759.33
2018-08-11T07:38:10.488Z,98763.51
2018-08-11T07:40:41.386Z,98744.17
2018-08-11T07:43:14.340Z,98747.78
2018-08-11T07:45:46.649Z,98739.53
2018-08-11T07:48:18.407Z,98732.23
2018-08-11T07:50:49.650Z,98737.36
2018-08-11T07:53:23.588Z,98735.39
2018-08-11T07:55:55.133Z,98724.45
2018-08-11T07:58:27.099Z,98732.15
2018-08-11T08:01:00.232Z,98739.16
2018-08-11T08:03:31.372Z,98735.01
2018-08-11T08:06:02.099Z,98734.27
2018-08-11T08:08:32.781Z,98739.67
2018-08-11T08:11:03.742Z,98730.97
2018-08-11T08:13:34.511Z,98733.04
2018-08-11T08:16:06.330Z,98731.27
2018-08-11T08:18:36.993Z,98725.73
2018-08-11T08:21:08.360Z,98727.97
2018-08-11T08:23:39.387Z,98731.04
2018-08-11T08:26:10.732Z,98720.59
2018-08-11T08:28:42.434Z,98726.44
2018-08-11T08:31:13.077Z,98718.34
2018-08-11T08:33:45.124Z,98717.66
2018-08-11T08:36:16.932Z,98704.81
2018-08-11T08:38:47.842Z,98711.23
2018-08-11T08:41:20.180Z,98726.48
2018-08-11T08:43:51.310Z,98718.76
2018-08-11T08:46:23.737Z,98730.69
2018-08-11T08:48:56.876Z,98724.67
2018-08-11T08:51:29.431Z,98721.27
2018-08-11T08:54:00.661Z,98718.64
2018-08-11T08:56:33.037Z,98709.25
2018-08-11T08:59:05.061Z,98706.21
2018-08-11T09:01:37.694Z,98713.44
2018-08-11T09:04:09.193Z,98713.94
2018-08-11T09:06:40.267Z,98709.11
2018-08-11T09:09:12.093Z,98706.59
2018-08-11T09:11:43.874Z,98732.06
2018-08-11T09:14:14.574Z,98723.94
2018-08-11T09:16:52.402Z,98716.92
2018-08-11T09:19:25.062Z,98716.47
2018-08-11T09:21:55.628Z,98720.97
2018-08-11T09:24:26.348Z,98735.91
2018-08-11T09:26:57.754Z,98720.90
2018-08-11T09:29:28.233Z,98734.58
2018-08-11T09:31:58.870Z,98732.62
2018-08-11T09:34:29.533Z,98726.03
2018-08-11T09:37:00.274Z,98726.59
2018-08-11T09:39:30.757Z,98721.20
2018-08-11T09:42:01.254Z,98728.14
2018-08-11T09:44:31.608Z,98721.14
2018-08-11T09:47:04.046Z,98728.87
2018-08-11T09:49:37.585Z,98708.36
2018-08-11T09:52:09.103Z,98710.45
2018-08-11T09:54:39.525Z,98719.05
2018-08-11T09:57:09.987Z,98710.04
2018-08-11T09:59:41.685Z,98716.16
2018-08-11T10:02:26.321Z,98717.36
2018-08-11T10:04:56.857Z,98708.39
2018-08-11T10:07:28.057Z,98713.45
2018-08-11T10:09:59.213Z,98710.20
2018-08-11T10:12:29.635Z,98703.81
2018-08-11T10:15:00.474Z,98712.08
2018-08-11T10:17:30.842Z,98712.73
2018-08-11T10:20:02.153Z,98719.36
2018-08-11T10:22:32.579Z,98715.40
2018-08-11T10:25:03.159Z,98712.44
2018-08-11T10:27:35.116Z,98710.84
2018-08-11T10:30:07.545Z,98715.03
2018-08-11T10:32:37.828Z,98719.25
2018-08-11T10:35:08.611Z,98715.06
2018-08-11T10:37:39.452Z,98711.20
2018-08-11T10:40:10.877Z,98713.25
2018-08-11T10:42:40.969Z,98706.84
2018-08-11T10:45:12.495Z,98713.80
2018-08-11T10:47:42.856Z,98704.13
2018-08-11T10:50:12.965Z,98703.98
2018-08-11T10:52:43.165Z,98703.08
2018-08-11T10:55:14.950Z,98703.63
2018-08-11T10:57:46.715Z,98696.50
2018-08-11T11:00:17.675Z,98702.97
2018-08-11T11:02:50.314Z,98704.75
2018-08-11T11:05:20.647Z,98703.65
2018-08-11T11:07:53.890Z,98711.56
2018-08-11T11:10:25.696Z,98709.53
2018-08-11T11:12:55.983Z,98701.66
2018-08-11T11:15:26.738Z,98708.43
2018-08-11T11:17:56.851Z,98713.24
2018-08-11T11:20:27.809Z,98707.67
2018-08-11T11:22:58.074Z,98702.91
2018-08-11T11:25:28.694Z,98710.49
2018-08-11T11:27:59.933Z,98690.00
2018-08-11T11:30:31.495Z,98710.80
2018-08-11T11:33:02.594Z,98706.45
2018-08-11T11:35:33.375Z,98688.26
2018-08-11T11:38:09.855Z,98683.79
2018-08-11T11:40:40.734Z,98681.16
2018-08-11T11:43:11.751Z,98683.37
2018-08-11T11:45:43.460Z,98673.33
2018-08-11T11:48:15.904Z,98677.55
2018-08-11T11:50:48.825Z,98671.08
2018-08-11T11:53:29.045Z,98659.86
2018-08-11T11:56:00.239Z,98667.94
2018-08-11T11:58:32.976Z,98662.54
2018-08-11T12:01:04.198Z,98664.77
2018-08-11T12:03:34.845Z,98661.58
2018-08-11T12:06:05.190Z,98653.78
2018-08-11T12:08:35.464Z,98655.09
2018-08-11T12:11:06.007Z,98651.03
2018-08-11T12:13:36.926Z,98661.30
2018-08-11T12:16:08.499Z,98629.31
2018-08-11T12:18:40.435Z,98646.16
2018-08-11T12:21:11.090Z,98634.32
2018-08-11T12:23:43.316Z,98634.08
2018-08-11T12:26:15.609Z,98640.80
2018-08-11T12:28:46.093Z,98630.73
2018-08-11T12:31:19.116Z,98634.82
2018-08-11T12:33:51.780Z,98633.83
2018-08-11T12:36:22.567Z,98644.09
2018-08-11T12:38:54.246Z,98633.95
2018-08-11T12:41:25.720Z,98637.23
2018-08-11T12:43:57.537Z,98634.63
2018-08-11T12:46:29.122Z,98622.18
2018-08-11T12:49:01.620Z,98622.40
2018-08-11T12:51:32.140Z,98623.69
2018-08-11T12:54:04.994Z,98612.06
2018-08-11T12:56:35.860Z,98612.28
2018-08-11T12:59:06.293Z,98611.08
2018-08-11T13:01:36.698Z,98615.29
2018-08-11T13:04:06.854Z,98617.71
2018-08-11T13:06:45.256Z,98613.98
2018-08-11T13:09:16.216Z,98615.02
2018-08-11T13:11:48.346Z,98610.91
2018-08-11T13:14:21.189Z,98617.17
2018-08-11T13:16:51.799Z,98606.02
2018-08-11T13:19:22.232Z,98596.24
2018-08-11T13:21:53.286Z,98599.94
2018-08-11T13:24:24.454Z,98598.79
2018-08-11T13:26:55.467Z,98598.89
2018-08-11T13:29:26.428Z,98593.23
2018-08-11T13:31:59.539Z,98590.53
2018-08-11T13:34:30.744Z,98584.70
2018-08-11T13:37:03.089Z,98588.05
2018-08-11T13:39:35.508Z,98591.64
2018-08-11T13:42:06.217Z,98583.98
2018-08-11T13:44:36.814Z,98577.47
2018-08-11T13:47:07.911Z,98589.25
2018-08-11T13:49:39.547Z,98581.78
2018-08-11T13:52:10.433Z,98588.85
2018-08-11T13:54:43.342Z,98582.44
2018-08-11T13:57:14.977Z,98577.56
2018-08-11T13:59:46.442Z,98578.95
2018-08-11T14:02:17.930Z,98570.69
2018-08-11T14:04:49.434Z,98574.14
2018-08-11T14:07:20.803Z,98574.45
2018-08-11T14:09:51.238Z,98572.80
2018-08-11T14:12:23.592Z,98559.48
2018-08-11T14:14:54.786Z,98568.09
2018-08-11T14:17:24.890Z,98567.02
2018-08-11T14:19:56.429Z,98568.89
2018-08-11T14:22:26.626Z,98553.16
2018-08-11T14:24:56.924Z,98568.09
2018-08-11T14:27:27.041Z,98553.05
2018-08-11T14:29:57.497Z,98548.88
2018-08-11T14:32:27.582Z,98552.65
2018-08-11T14:34:58.032Z,98555.41
2018-08-11T14:37:29.065Z,98561.23
2018-08-11T14:39:59.269Z,98556.84
2018-08-11T14:42:29.453Z,98556.94
2018-08-11T14:45:01.442Z,98552.37
2018-08-11T14:47:31.758Z,98546.53
2018-08-11T14:50:01.804Z,98552.23
2018-08-11T14:52:32.316Z,98555.15
2018-08-11T14:55:03.021Z,98563.11
2018-08-11T14:57:34.741Z,98547.17
2018-08-11T15:00:10.466Z,98542.24
2018-08-11T15:02:41.830Z,98534.42
2018-08-11T15:05:13.849Z,98535.44
2018-08-11T15:07:45.239Z,98529.78
2018-08-11T15:10:15.586Z,98531.88
2018-08-11T15:12:47.391Z,98530.23
2018-08-11T15:15:20.524Z,98532.84
2018-08-11T15:17:50.707Z,98521.73
2018-08-11T15:20:22.750Z,98524.22
2018-08-11T15:22:53.290Z,98526.84
2018-08-11T15:25:25.538Z,98534.35
2018-08-11T15:27:57.169Z,98527.84
2018-08-11T15:30:29.206Z,98526.85
2018-08-11T15:33:00.145Z,98549.83
2018-08-11T15:35:30.699Z,98537.23
2018-08-11T15:38:01.921Z,98539.14
2018-08-11T15:40:34.678Z,98525.95
2018-08-11T15:45:17.098Z,98514.92
2018-08-11T15:47:47.633Z,98518.87
2018-08-11T15:50:26.297Z,98518.88
2018-08-11T15:52:57.386Z,98508.53
2018-08-11T15:55:36.923Z,98513.66
2018-08-11T15:58:08.425Z,98528.52
2018-08-11T16:00:39.264Z,98516.54
2018-08-11T16:03:10.808Z,98518.23
2018-08-11T16:05:42.533Z,98518.29
2018-08-11T16:08:13.268Z,98519.54
2018-08-11T16:10:43.541Z,98511.00
2018-08-11T16:13:15.656Z,98511.12
2018-08-11T16:15:48.861Z,98523.34
2018-08-11T16:18:19.116Z,98514.79
2018-08-11T16:20:49.542Z,98518.62
2018-08-11T16:23:20.482Z,98509.30
2018-08-11T16:25:58.328Z,98514.14
2018-08-11T16:28:29.351Z,98512.54
2018-08-11T16:30:59.820Z,98512.06
2018-08-11T16:33:30.526Z,98507.55
2018-08-11T16:36:01.247Z,98509.53
2018-08-11T16:38:32.404Z,98507.16
2018-08-11T16:41:02.627Z,98507.96
2018-08-11T16:43:33.861Z,98504.81
2018-08-11T16:46:04.322Z,98507.80
2018-08-11T16:48:36.350Z,98504.04
2018-08-11T16:51:10.058Z,98513.07
2018-08-11T16:53:40.633Z,98509.49
2018-08-11T16:56:11.108Z,98520.03
2018-08-11T16:58:42.379Z,98523.86
2018-08-11T17:01:12.923Z,98515.91
2018-08-11T17:03:44.893Z,98518.48
2018-08-11T17:06:15.314Z,98517.45
2018-08-11T17:08:45.628Z,98521.09
2018-08-11T17:11:17.014Z,98514.34
2018-08-11T17:13:47.537Z,98518.62
2018-08-11T17:16:19.194Z,98522.81
2018-08-11T17:18:49.970Z,98518.48
2018-08-11T17:21:21.186Z,98515.98
2018-08-11T17:23:51.940Z,98523.48
2018-08-11T17:26:23.790Z,98527.68
2018-08-11T17:28:54.334Z,98519.38
2018-08-11T17:31:25.642Z,98521.30
2018-08-11T17:33:58.673Z,98515.31
2018-08-11T17:36:30.084Z,98517.20
2018-08-11T17:39:00.910Z,98523.28
2018-08-11T17:41:32.412Z,98522.25
2018-08-11T17:44:04.009Z,98527.37
2018-08-11T17:46:35.344Z,98532.03
2018-08-11T17:49:11.594Z,98531.01
2018-08-11T17:51:42.809Z,98533.28
2018-08-11T17:54:15.136Z,98530.45
2018-08-11T17:56:45.620Z,98535.56
2018-08-11T17:59:16.867Z,98542.03
2018-08-11T18:01:48.366Z,98538.56
2018-08-11T18:04:18.808Z,98539.13
2018-08-11T18:06:50.457Z,98540.37
2018-08-11T18:09:21.686Z,98541.88
2018-08-11T18:11:52.282Z,98537.87
2018-08-11T18:17:01.260Z,98544.02
2018-08-11T18:19:31.992Z,98544.75
2018-08-11T18:22:02.513Z,98551.22
2018-08-11T18:24:32.902Z,98553.45
2018-08-11T18:27:03.512Z,98560.65
2018-08-11T18:29:35.209Z,98557.57
2018-08-11T18:32:05.805Z,98561.28
2018-08-11T18:34:37.188Z,98563.92
2018-08-11T18:37:08.465Z,98558.69
2018-08-11T18:39:38.880Z,98571.17
2018-08-11T18:42:09.497Z,98570.48
2018-08-11T18:44:40.953Z,98572.05
2018-08-11T18:47:12.601Z,98579.69
2018-08-11T18:49:44.318Z,98579.36
2018-08-11T18:52:15.786Z,98581.30
2018-08-11T18:54:47.034Z,98585.06
2018-08-11T18:57:17.455Z,98585.20
2018-08-11T18:59:49.019Z,98580.28
2018-08-11T19:02:19.260Z,98587.78
2018-08-11T19:04:50.582Z,98585.58
2018-08-11T19:07:21.604Z,98590.30
2018-08-11T19:09:52.591Z,98594.03
2018-08-11T19:12:44.469Z,98593.42
2018-08-11T19:15:19.466Z,98598.77
2018-08-11T19:17:51.392Z,98596.48
2018-08-11T19:20:25.256Z,98597.33
2018-08-11T19:22:56.779Z,98597.81
2018-08-11T19:25:33.414Z,98603.95
2018-08-11T19:28:06.226Z,98606.61
2018-08-11T19:30:38.084Z,98607.06
2018-08-11T19:33:08.765Z,98602.20
2018-08-11T19:35:40.715Z,98602.80
2018-08-11T19:38:11.317Z,98602.09
2018-08-11T19:40:41.693Z,98605.56
2018-08-11T19:43:14.744Z,98604.45
2018-08-11T19:45:45.871Z,98608.75
2018-08-11T19:48:17.034Z,98606.20
2018-08-11T19:50:49.095Z,98608.21
2018-08-11T19:53:20.824Z,98607.35
2018-08-11T19:55:51.665Z,98603.86
2018-08-11T19:58:24.992Z,98609.78
2018-08-11T20:00:55.486Z,98606.03
2018-08-11T20:03:26.551Z,98612.48
2018-08-11T20:05:58.779Z,98610.62
2018-08-11T20:08:29.075Z,98615.59
2018-08-11T20:11:01.193Z,98617.75
2018-08-11T20:13:32.497Z,98615.59
2018-08-11T20:16:05.117Z,98615.95
2018-08-11T20:18:35.732Z,98620.13
2018-08-11T20:21:37.955Z,98618.52
2018-08-11T20:24:15.574Z,98622.83
2018-08-11T20:26:52.257Z,98622.17
2018-08-11T20:29:22.705Z,98620.55
2018-08-11T20:31:53.027Z,98623.06
2018-08-11T20:34:24.214Z,98625.73
2018-08-11T20:36:55.537Z,98623.41
2018-08-11T20:39:25.752Z,98622.32
2018-08-11T20:41:57.738Z,98624.30
2018-08-11T20:44:29.057Z,98621.99
2018-08-11T20:46:59.718Z,98621.84
2018-08-11T20:49:30.759Z,98623.84
2018-08-11T20:52:03.444Z,98620.83
2018-08-11T20:54:34.520Z,98626.89
2018-08-11T20:57:08.441Z,98624.79
2018-08-11T20:59:41.006Z,98624.84
2018-08-11T21:02:11.490Z,98632.66
2018-08-11T21:04:42.104Z,98628.17
2018-08-11T21:07:13.056Z,98634.80
2018-08-11T21:09:44.678Z,98634.89
2018-08-11T21:12:17.339Z,98630.31
2018-08-11T21:14:48.808Z,98639.23
2018-08-11T21:17:19.650Z,98635.22
2018-08-11T21:19:50.265Z,98636.12
2018-08-11T21:22:21.667Z,98635.83
2018-08-11T21:24:52.640Z,98638.76
2018-08-11T21:27:23.970Z,98640.60
2018-08-11T21:29:54.838Z,98641.45
2018-08-11T21:32:27.159Z,98637.06
2018-08-11T21:34:58.744Z,98636.53
2018-08-11T21:37:29.265Z,98639.09
2018-08-11T21:40:00.576Z,98642.90
2018-08-11T21:42:31.125Z,98644.73
2018-08-11T21:45:02.101Z,98644.45
2018-08-11T21:47:32.631Z,98644.02
2018-08-11T21:50:04.783Z,98644.58
2018-08-11T21:52:35.972Z,98647.72
2018-08-11T21:55:06.832Z,98647.94
2018-08-11T21:57:38.681Z,98647.88
2018-08-11T22:00:32.877Z,98644.80
2018-08-11T22:03:04.620Z,98640.03
2018-08-11T22:05:34.804Z,98639.37
2018-08-11T22:08:05.117Z,98643.32
2018-08-11T22:10:35.438Z,98637.20
2018-08-11T22:13:06.316Z,98636.55
2018-08-11T22:15:37.697Z,98641.38
2018-08-11T22:18:11.875Z,98642.53
2018-08-11T22:20:42.056Z,98635.44
2018-08-11T22:23:12.748Z,98637.32
2018-08-11T22:25:43.676Z,98636.94
2018-08-11T22:28:15.867Z,98638.55
2018-08-11T22:30:46.355Z,98626.48
2018-08-11T22:33:18.357Z,98624.23
2018-08-11T22:35:48.530Z,98619.14
2018-08-11T22:38:20.186Z,98628.02
2018-08-11T22:40:51.244Z,98622.83
2018-08-11T22:43:21.839Z,98619.81
2018-08-11T22:45:53.714Z,98623.84
2018-08-11T22:48:25.610Z,98620.15
2018-08-11T22:50:55.928Z,98626.92
2018-08-11T22:53:27.606Z,98623.63
2018-08-11T22:55:58.304Z,98626.70
2018-08-11T22:58:29.320Z,98628.89
2018-08-11T23:01:02.189Z,98623.86
2018-08-11T23:03:32.387Z,98620.36
2018-08-11T23:06:02.618Z,98619.63
2018-08-11T23:08:33.820Z,98622.50
2018-08-11T23:11:04.553Z,98622.47
2018-08-11T23:13:34.790Z,98624.34
2018-08-11T23:16:05.049Z,98622.81
2018-08-11T23:18:36.341Z,98623.05
2018-08-11T23:21:06.865Z,98622.08
2018-08-11T23:23:36.971Z,98615.55
2018-08-11T23:26:07.186Z,98621.53
2018-08-11T23:28:37.451Z,98620.07
2018-08-11T23:31:08.419Z,98616.31
2018-08-11T23:33:41.343Z,98613.72
2018-08-11T23:36:12.590Z,98617.70
2018-08-11T23:38:43.488Z,98615.50
2018-08-11T23:41:14.021Z,98618.20
2018-08-11T23:43:44.212Z,98620.90
2018-08-11T23:46:14.542Z,98621.63
2018-08-11T23:48:45.136Z,98610.86
2018-08-11T23:51:15.300Z,98606.25
2018-08-11T23:53:45.388Z,98612.38
2018-08-11T23:56:18.813Z,98611.02
2018-08-11T23:58:51.815Z,98611.94
